sensor_id;sensor_type;location;lat;lon;timestamp;pressure;altitude;pressure_sealevel;temperature;humidity
57442;BME280;43284;47.042;15.498;2022-10-18T00:00:54;98413.03;;;9.48;98.28
57442;BME280;43284;47.042;15.498;2022-10-18T00:03:22;98416.59;;;9.45;98.34
57442;BME280;43284;47.042;15.498;2022-10-18T00:05:50;98417.44;;;9.46;98.81
57442;BME280;43284;47.042;15.498;2022-10-18T00:08:18;98412.34;;;9.40;98.29
57442;BME280;43284;47.042;15.498;2022-10-18T00:10:46;98411.50;;;9.39;98.44
57442;BME280;43284;47.042;15.498;2022-10-18T00:13:14;98415.91;;;9.37;98.41
57442;BME280;43284;47.042;15.498;2022-10-18T00:15:53;98408.06;;;9.37;99.05
57442;BME280;43284;47.042;15.498;2022-10-18T00:18:21;98410.72;;;9.36;99.07
57442;BME280;43284;47.042;15.498;2022-10-18T00:21:09;98405.47;;;9.36;99.33
57442;BME280;43284;47.042;15.498;2022-10-18T00:23:37;98404.69;;;9.34;99.00
57442;BME280;43284;47.042;15.498;2022-10-18T00:26:08;98410.81;;;9.31;98.96
57442;BME280;43284;47.042;15.498;2022-10-18T00:28:37;98395.25;;;9.28;98.80
57442;BME280;43284;47.042;15.498;2022-10-18T00:31:20;98395.28;;;9.26;98.78
57442;BME280;43284;47.042;15.498;2022-10-18T00:33:56;98392.72;;;9.25;98.78
57442;BME280;43284;47.042;15.498;2022-10-18T00:36:25;98392.78;;;9.20;98.43
57442;BME280;43284;47.042;15.498;2022-10-18T00:38:53;98389.41;;;9.18;98.82
57442;BME280;43284;47.042;15.498;2022-10-18T00:41:27;98386.69;;;9.23;99.60
57442;BME280;43284;47.042;15.498;2022-10-18T00:44:55;98389.41;;;9.18;98.78
57442;BME280;43284;47.042;15.498;2022-10-18T00:46:57;98387.78;;;9.13;98.31
57442;BME280;43284;47.042;15.498;2022-10-18T00:49:34;98388.72;;;9.08;97.97
57442;BME280;43284;47.042;15.498;2022-10-18T00:52:13;98383.75;;;8.98;97.66
57442;BME280;43284;47.042;15.498;2022-10-18T00:54:44;98385.50;;;8.97;98.11
57442;BME280;43284;47.042;15.498;2022-10-18T00:57:12;98384.69;;;8.95;97.97
57442;BME280;43284;47.042;15.498;2022-10-18T00:59:42;98380.44;;;8.91;97.97
57442;BME280;43284;47.042;15.498;2022-10-18T01:02:10;98382.28;;;8.86;97.85
57442;BME280;43284;47.042;15.498;2022-10-18T01:04:40;98384.91;;;8.86;98.38
57442;BME280;43284;47.042;15.498;2022-10-18T01:07:27;98370.00;;;8.91;99.22
57442;BME280;43284;47.042;15.498;2022-10-18T01:15:59;98356.34;;;8.80;97.85
57442;BME280;43284;47.042;15.498;2022-10-18T01:24:23;98357.31;;;8.76;98.70
57442;BME280;43284;47.042;15.498;2022-10-18T01:27:29;98353.00;;;8.75;98.73
57442;BME280;43284;47.042;15.498;2022-10-18T01:35:46;98343.41;;;8.77;99.52
57442;BME280;43284;47.042;15.498;2022-10-18T01:38:17;98348.63;;;8.77;99.48
57442;BME280;43284;47.042;15.498;2022-10-18T01:40:53;98342.47;;;8.79;99.58
57442;BME280;43284;47.042;15.498;2022-10-18T01:43:22;98344.25;;;8.77;99.31
57442;BME280;43284;47.042;15.498;2022-10-18T01:45:53;98339.13;;;8.73;98.93
57442;BME280;43284;47.042;15.498;2022-10-18T01:48:21;98336.56;;;8.71;99.22
57442;BME280;43284;47.042;15.498;2022-10-18T01:50:50;98339.19;;;8.70;99.25
57442;BME280;43284;47.042;15.498;2022-10-18T01:53:25;98334.06;;;8.66;98.99
57442;BME280;43284;47.042;15.498;2022-10-18T01:56:14;98320.19;;;8.64;99.17
57442;BME280;43284;47.042;15.498;2022-10-18T02:01:50;98321.16;;;8.60;98.47
57442;BME280;43284;47.042;15.498;2022-10-18T02:04:32;98315.13;;;8.57;98.64
57442;BME280;43284;47.042;15.498;2022-10-18T02:07:13;98310.84;;;8.56;99.09
57442;BME280;43284;47.042;15.498;2022-10-18T02:09:55;98311.56;;;8.62;99.95
57442;BME280;43284;47.042;15.498;2022-10-18T02:12:28;98309.16;;;8.53;98.76
57442;BME280;43284;47.042;15.498;2022-10-18T02:14:57;98313.50;;;8.53;98.84
57442;BME280;43284;47.042;15.498;2022-10-18T02:17:28;98313.47;;;8.54;99.27
57442;BME280;43284;47.042;15.498;2022-10-18T02:19:56;98311.88;;;8.49;98.80
57442;BME280;43284;47.042;15.498;2022-10-18T02:22:26;98308.44;;;8.45;98.64
57442;BME280;43284;47.042;15.498;2022-10-18T02:24:57;98311.16;;;8.40;98.53
57442;BME280;43284;47.042;15.498;2022-10-18T02:27:25;98308.56;;;8.40;98.71
57442;BME280;43284;47.042;15.498;2022-10-18T02:29:53;98306.78;;;8.42;99.35
57442;BME280;43284;47.042;15.498;2022-10-18T02:33:12;98307.69;;;8.38;98.69
57442;BME280;43284;47.042;15.498;2022-10-18T02:35:58;98309.47;;;8.36;98.90
57442;BME280;43284;47.042;15.498;2022-10-18T02:38:31;98310.28;;;8.40;99.35
57442;BME280;43284;47.042;15.498;2022-10-18T02:40:58;98315.53;;;8.37;99.09
57442;BME280;43284;47.042;15.498;2022-10-18T02:43:26;98317.38;;;8.33;98.57
57442;BME280;43284;47.042;15.498;2022-10-18T02:45:53;98314.81;;;8.30;98.38
57442;BME280;43284;47.042;15.498;2022-10-18T02:48:21;98313.97;;;8.30;98.66
57442;BME280;43284;47.042;15.498;2022-10-18T02:50:49;98302.63;;;8.32;98.97
57442;BME280;43284;47.042;15.498;2022-10-18T02:53:16;98309.56;;;8.32;99.24
57442;BME280;43284;47.042;15.498;2022-10-18T02:55:44;98308.72;;;8.31;99.26
57442;BME280;43284;47.042;15.498;2022-10-18T02:58:11;98302.63;;;8.31;99.10
57442;BME280;43284;47.042;15.498;2022-10-18T03:00:40;98298.41;;;8.27;98.67
57442;BME280;43284;47.042;15.498;2022-10-18T03:03:08;98297.56;;;8.24;98.71
57442;BME280;43284;47.042;15.498;2022-10-18T03:05:36;98299.44;;;8.18;98.57
57442;BME280;43284;47.042;15.498;2022-10-18T03:08:04;98296.97;;;8.12;97.76
57442;BME280;43284;47.042;15.498;2022-10-18T03:10:32;98299.66;;;8.07;98.16
57442;BME280;43284;47.042;15.498;2022-10-18T03:13:00;98304.06;;;8.03;98.48
57442;BME280;43284;47.042;15.498;2022-10-18T03:15:27;98304.06;;;8.05;99.20
57442;BME280;43284;47.042;15.498;2022-10-18T03:17:55;98297.16;;;8.02;98.81
57442;BME280;43284;47.042;15.498;2022-10-18T03:20:23;98300.63;;;8.03;99.18
57442;BME280;43284;47.042;15.498;2022-10-18T03:22:51;98302.28;;;8.07;99.66
57442;BME280;43284;47.042;15.498;2022-10-18T03:25:20;98308.25;;;8.11;100.00
57442;BME280;43284;47.042;15.498;2022-10-18T03:27:47;98303.94;;;8.10;99.59
57442;BME280;43284;47.042;15.498;2022-10-18T03:30:15;98314.28;;;8.14;100.00
57442;BME280;43284;47.042;15.498;2022-10-18T03:32:42;98306.56;;;8.10;99.95
57442;BME280;43284;47.042;15.498;2022-10-18T03:35:10;98302.31;;;8.04;99.64
57442;BME280;43284;47.042;15.498;2022-10-18T03:37:38;98301.44;;;8.05;100.00
57442;BME280;43284;47.042;15.498;2022-10-18T03:40:07;98302.28;;;8.05;100.00
57442;BME280;43284;47.042;15.498;2022-10-18T03:42:35;98302.38;;;8.02;100.00
57442;BME280;43284;47.042;15.498;2022-10-18T03:45:02;98298.88;;;8.03;100.00
57442;BME280;43284;47.042;15.498;2022-10-18T03:47:30;98298.03;;;8.01;99.51
57442;BME280;43284;47.042;15.498;2022-10-18T03:49:57;98298.97;;;7.99;99.25
57442;BME280;43284;47.042;15.498;2022-10-18T03:52:25;98299.91;;;7.93;98.88
57442;BME280;43284;47.042;15.498;2022-10-18T03:54:52;98296.53;;;7.90;99.38
57442;BME280;43284;47.042;15.498;2022-10-18T03:57:20;98300.00;;;7.90;99.61
57442;BME280;43284;47.042;15.498;2022-10-18T03:59:47;98295.72;;;7.86;99.21
57442;BME280;43284;47.042;15.498;2022-10-18T04:02:15;98292.28;;;7.86;99.55
57442;BME280;43284;47.042;15.498;2022-10-18T04:04:42;98289.69;;;7.84;99.17
57442;BME280;43284;47.042;15.498;2022-10-18T04:07:09;98289.69;;;7.84;99.61
57442;BME280;43284;47.042;15.498;2022-10-18T04:09:37;98285.41;;;7.81;99.49
57442;BME280;43284;47.042;15.498;2022-10-18T04:12:05;98286.25;;;7.82;99.42
57442;BME280;43284;47.042;15.498;2022-10-18T04:14:32;98278.41;;;7.85;99.91
57442;BME280;43284;47.042;15.498;2022-10-18T04:17:00;98283.63;;;7.85;100.00
57442;BME280;43284;47.042;15.498;2022-10-18T04:19:31;98281.16;;;7.76;98.71
57442;BME280;43284;47.042;15.498;2022-10-18T04:22:01;98286.38;;;7.76;99.18
57442;BME280;43284;47.042;15.498;2022-10-18T04:24:29;98279.50;;;7.72;99.05
57442;BME280;43284;47.042;15.498;2022-10-18T04:26:58;98286.50;;;7.70;99.18
57442;BME280;43284;47.042;15.498;2022-10-18T04:29:25;98282.16;;;7.70;99.36
57442;BME280;43284;47.042;15.498;2022-10-18T04:31:53;98290.81;;;7.71;99.14
57442;BME280;43284;47.042;15.498;2022-10-18T04:34:21;98292.63;;;7.67;98.74
57442;BME280;43284;47.042;15.498;2022-10-18T04:36:49;98285.75;;;7.63;98.94
57442;BME280;43284;47.042;15.498;2022-10-18T04:39:16;98288.34;;;7.63;99.00
57442;BME280;43284;47.042;15.498;2022-10-18T04:41:44;98283.16;;;7.63;99.30
57442;BME280;43284;47.042;15.498;2022-10-18T04:44:11;98285.78;;;7.61;98.99
57442;BME280;43284;47.042;15.498;2022-10-18T04:46:39;98297.16;;;7.57;98.85
57442;BME280;43284;47.042;15.498;2022-10-18T04:49:06;98285.97;;;7.52;98.62
57442;BME280;43284;47.042;15.498;2022-10-18T04:51:34;98291.03;;;7.58;100.00
57442;BME280;43284;47.042;15.498;2022-10-18T04:54:03;98287.59;;;7.58;100.00
57442;BME280;43284;47.042;15.498;2022-10-18T04:56:33;98292.00;;;7.54;99.63
57442;BME280;43284;47.042;15.498;2022-10-18T04:59:00;98286.00;;;7.51;99.27
57442;BME280;43284;47.042;15.498;2022-10-18T05:01:28;98289.44;;;7.51;99.92
57442;BME280;43284;47.042;15.498;2022-10-18T05:03:56;98286.84;;;7.51;99.85
57442;BME280;43284;47.042;15.498;2022-10-18T05:06:23;98283.41;;;7.49;99.62
57442;BME280;43284;47.042;15.498;2022-10-18T05:08:51;98290.44;;;7.46;99.17
57442;BME280;43284;47.042;15.498;2022-10-18T05:11:18;98290.47;;;7.42;99.03
57442;BME280;43284;47.042;15.498;2022-10-18T05:13:46;98290.47;;;7.42;99.46
57442;BME280;43284;47.042;15.498;2022-10-18T05:16:14;98281.75;;;7.45;99.67
57442;BME280;43284;47.042;15.498;2022-10-18T05:18:41;98284.25;;;7.50;99.93
57442;BME280;43284;47.042;15.498;2022-10-18T05:21:09;98281.63;;;7.51;100.00
57442;BME280;43284;47.042;15.498;2022-10-18T05:23:38;98283.47;;;7.46;99.32
57442;BME280;43284;47.042;15.498;2022-10-18T05:26:06;98289.63;;;7.42;99.33
57442;BME280;43284;47.042;15.498;2022-10-18T05:28:34;98292.22;;;7.42;99.22
57442;BME280;43284;47.042;15.498;2022-10-18T05:31:08;98278.28;;;7.45;99.83
57442;BME280;43284;47.042;15.498;2022-10-18T05:33:36;98286.03;;;7.48;99.92
57442;BME280;43284;47.042;15.498;2022-10-18T05:36:04;98278.19;;;7.49;99.99
57442;BME280;43284;47.042;15.498;2022-10-18T05:38:31;98276.34;;;7.56;100.00
57442;BME280;43284;47.042;15.498;2022-10-18T05:41:03;98279.84;;;7.55;99.97
57442;BME280;43284;47.042;15.498;2022-10-18T05:43:31;98276.44;;;7.51;99.02
57442;BME280;43284;47.042;15.498;2022-10-18T05:45:59;98273.06;;;7.46;98.88
57442;BME280;43284;47.042;15.498;2022-10-18T05:48:27;98279.19;;;7.43;99.15
57442;BME280;43284;47.042;15.498;2022-10-18T05:50:57;98267.06;;;7.42;99.56
57442;BME280;43284;47.042;15.498;2022-10-18T05:53:25;98270.56;;;7.41;99.20
57442;BME280;43284;47.042;15.498;2022-10-18T05:55:53;98271.34;;;7.45;99.49
57442;BME280;43284;47.042;15.498;2022-10-18T05:58:20;98274.00;;;7.43;99.56
57442;BME280;43284;47.042;15.498;2022-10-18T06:00:48;98267.88;;;7.46;99.57
57442;BME280;43284;47.042;15.498;2022-10-18T06:03:15;98268.66;;;7.50;99.92
57442;BME280;43284;47.042;15.498;2022-10-18T06:05:45;98268.59;;;7.53;100.00
57442;BME280;43284;47.042;15.498;2022-10-18T06:08:12;98266.84;;;7.55;99.94
57442;BME280;43284;47.042;15.498;2022-10-18T06:10:39;98268.53;;;7.57;99.97
57442;BME280;43284;47.042;15.498;2022-10-18T06:13:07;98277.16;;;7.59;99.88
57442;BME280;43284;47.042;15.498;2022-10-18T06:15:35;98264.94;;;7.63;100.00
57442;BME280;43284;47.042;15.498;2022-10-18T06:18:02;98268.34;;;7.67;100.00
57442;BME280;43284;47.042;15.498;2022-10-18T06:20:30;98270.91;;;7.70;100.00
57442;BME280;43284;47.042;15.498;2022-10-18T06:22:57;98268.22;;;7.74;100.00
57442;BME280;43284;47.042;15.498;2022-10-18T06:25:25;98274.19;;;7.78;100.00
57442;BME280;43284;47.042;15.498;2022-10-18T06:27:52;98278.47;;;7.80;100.00
57442;BME280;43284;47.042;15.498;2022-10-18T06:30:20;98278.44;;;7.83;100.00
57442;BME280;43284;47.042;15.498;2022-10-18T06:32:47;98280.09;;;7.88;100.00
57442;BME280;43284;47.042;15.498;2022-10-18T06:35:14;98280.84;;;7.93;100.00
57442;BME280;43284;47.042;15.498;2022-10-18T06:37:42;98273.78;;;7.98;100.00
57442;BME280;43284;47.042;15.498;2022-10-18T06:40:09;98277.94;;;8.07;100.00
57442;BME280;43284;47.042;15.498;2022-10-18T06:42:37;98287.41;;;8.12;100.00
57442;BME280;43284;47.042;15.498;2022-10-18T06:45:05;98283.81;;;8.18;100.00
57442;BME280;43284;47.042;15.498;2022-10-18T06:47:33;98282.81;;;8.25;100.00
57442;BME280;43284;47.042;15.498;2022-10-18T06:50:00;98285.22;;;8.33;100.00
57442;BME280;43284;47.042;15.498;2022-10-18T06:52:28;98286.69;;;8.46;100.00
57442;BME280;43284;47.042;15.498;2022-10-18T06:54:55;98290.78;;;8.59;100.00
57442;BME280;43284;47.042;15.498;2022-10-18T06:57:23;98288.78;;;8.71;100.00
57442;BME280;43284;47.042;15.498;2022-10-18T06:59:50;98286.69;;;8.85;100.00
57442;BME280;43284;47.042;15.498;2022-10-18T07:02:17;98290.72;;;8.98;100.00
57442;BME280;43284;47.042;15.498;2022-10-18T07:04:46;98290.66;;;9.01;100.00
57442;BME280;43284;47.042;15.498;2022-10-18T07:07:14;98287.09;;;9.05;100.00
57442;BME280;43284;47.042;15.498;2022-10-18T07:09:42;98287.84;;;9.09;100.00
57442;BME280;43284;47.042;15.498;2022-10-18T07:12:11;98278.09;;;9.17;100.00
57442;BME280;43284;47.042;15.498;2022-10-18T07:14:41;98285.75;;;9.25;100.00
57442;BME280;43284;47.042;15.498;2022-10-18T07:17:08;98282.09;;;9.31;100.00
57442;BME280;43284;47.042;15.498;2022-10-18T07:19:36;98283.72;;;9.36;100.00
57442;BME280;43284;47.042;15.498;2022-10-18T07:22:03;98272.25;;;9.42;100.00
57442;BME280;43284;47.042;15.498;2022-10-18T07:24:30;98273.81;;;9.49;100.00
57442;BME280;43284;47.042;15.498;2022-10-18T07:26:58;98272.78;;;9.55;100.00
57442;BME280;43284;47.042;15.498;2022-10-18T07:29:26;98272.63;;;9.61;100.00
57442;BME280;43284;47.042;15.498;2022-10-18T07:31:53;98273.31;;;9.67;100.00
57442;BME280;43284;47.042;15.498;2022-10-18T07:34:21;98266.19;;;9.74;100.00
57442;BME280;43284;47.042;15.498;2022-10-18T07:36:48;98266.97;;;9.78;100.00
57442;BME280;43284;47.042;15.498;2022-10-18T07:39:16;98266.66;;;9.88;100.00
57442;BME280;43284;47.042;15.498;2022-10-18T07:41:43;98271.69;;;9.95;100.00
57442;BME280;43284;47.042;15.498;2022-10-18T07:44:11;98261.84;;;10.04;100.00
57442;BME280;43284;47.042;15.498;2022-10-18T07:46:38;98263.31;;;10.15;100.00
57442;BME280;43284;47.042;15.498;2022-10-18T07:49:06;98260.50;;;10.21;100.00
57442;BME280;43284;47.042;15.498;2022-10-18T07:51:33;98261.97;;;10.31;100.00
57442;BME280;43284;47.042;15.498;2022-10-18T07:54:02;98263.50;;;10.38;100.00
57442;BME280;43284;47.042;15.498;2022-10-18T07:56:30;98257.13;;;10.47;100.00
57442;BME280;43284;47.042;15.498;2022-10-18T07:58:58;98255.84;;;10.60;100.00
57442;BME280;43284;47.042;15.498;2022-10-18T08:01:25;98253.72;;;10.73;100.00
57442;BME280;43284;47.042;15.498;2022-10-18T08:03:53;98253.47;;;10.81;100.00
57442;BME280;43284;47.042;15.498;2022-10-18T08:06:22;98252.13;;;10.96;100.00
57442;BME280;43284;47.042;15.498;2022-10-18T08:08:50;98246.56;;;11.06;100.00
57442;BME280;43284;47.042;15.498;2022-10-18T08:11:21;98249.59;;;11.19;100.00
57442;BME280;43284;47.042;15.498;2022-10-18T08:13:50;98245.59;;;11.34;100.00
57442;BME280;43284;47.042;15.498;2022-10-18T08:16:20;98249.50;;;11.47;100.00
57442;BME280;43284;47.042;15.498;2022-10-18T08:18:48;98243.09;;;11.56;100.00
57442;BME280;43284;47.042;15.498;2022-10-18T08:21:17;98245.97;;;11.73;100.00
57442;BME280;43284;47.042;15.498;2022-10-18T08:23:44;98249.72;;;11.91;100.00
57442;BME280;43284;47.042;15.498;2022-10-18T08:26:16;98245.22;;;11.95;99.98
57442;BME280;43284;47.042;15.498;2022-10-18T08:28:45;98247.69;;;12.00;98.30
57442;BME280;43284;47.042;15.498;2022-10-18T08:31:14;98247.25;;;12.12;97.38
57442;BME280;43284;47.042;15.498;2022-10-18T08:33:46;98248.19;;;12.33;96.49
57442;BME280;43284;47.042;15.498;2022-10-18T08:36:15;98245.31;;;12.39;95.03
57442;BME280;43284;47.042;15.498;2022-10-18T08:38:43;98247.09;;;12.39;94.30
57442;BME280;43284;47.042;15.498;2022-10-18T08:44:21;98243.31;;;12.46;94.94
57442;BME280;43284;47.042;15.498;2022-10-18T08:47:15;98238.03;;;12.47;93.88
57442;BME280;43284;47.042;15.498;2022-10-18T08:49:48;98243.03;;;12.53;93.75
57442;BME280;43284;47.042;15.498;2022-10-18T08:52:42;98236.50;;;12.64;95.13
57442;BME280;43284;47.042;15.498;2022-10-18T08:55:20;98238.22;;;12.87;92.70
57442;BME280;43284;47.042;15.498;2022-10-18T08:57:51;98224.53;;;12.78;92.21
57442;BME280;43284;47.042;15.498;2022-10-18T09:00:24;98226.03;;;12.86;93.21
57442;BME280;43284;47.042;15.498;2022-10-18T09:03:02;98223.88;;;12.95;93.91
57442;BME280;43284;47.042;15.498;2022-10-18T09:06:09;98210.28;;;13.06;92.47
57442;BME280;43284;47.042;15.498;2022-10-18T09:08:50;98213.81;;;13.27;92.67
57442;BME280;43284;47.042;15.498;2022-10-18T09:11:53;98215.97;;;13.38;91.76
57442;BME280;43284;47.042;15.498;2022-10-18T09:17:33;98205.06;;;13.68;89.79
57442;BME280;43284;47.042;15.498;2022-10-18T09:20:21;98201.03;;;13.79;88.68
57442;BME280;43284;47.042;15.498;2022-10-18T09:22:54;98197.13;;;13.88;88.67
57442;BME280;43284;47.042;15.498;2022-10-18T09:25:45;98196.72;;;13.97;87.70
57442;BME280;43284;47.042;15.498;2022-10-18T09:28:49;98189.19;;;14.09;87.33
57442;BME280;43284;47.042;15.498;2022-10-18T09:31:42;98189.69;;;14.17;87.93
57442;BME280;43284;47.042;15.498;2022-10-18T09:34:28;98176.41;;;14.20;87.16
57442;BME280;43284;47.042;15.498;2022-10-18T09:36:59;98167.44;;;14.24;86.80
57442;BME280;43284;47.042;15.498;2022-10-18T09:39:37;98167.94;;;14.32;87.03
57442;BME280;43284;47.042;15.498;2022-10-18T09:42:26;98171.47;;;14.50;87.83
57442;BME280;43284;47.042;15.498;2022-10-18T09:45:12;98165.31;;;14.69;84.78
57442;BME280;43284;47.042;15.498;2022-10-18T09:48:06;98165.63;;;14.80;86.23
57442;BME280;43284;47.042;15.498;2022-10-18T09:57:13;98171.56;;;15.02;81.83
57442;BME280;43284;47.042;15.498;2022-10-18T09:59:48;98170.00;;;15.16;80.69
57442;BME280;43284;47.042;15.498;2022-10-18T10:02:28;98170.53;;;15.22;82.87
57442;BME280;43284;47.042;15.498;2022-10-18T10:04:56;98170.59;;;15.38;80.39
57442;BME280;43284;47.042;15.498;2022-10-18T10:07:32;98172.91;;;15.44;82.37
57442;BME280;43284;47.042;15.498;2022-10-18T10:10:25;98172.16;;;15.42;81.65
57442;BME280;43284;47.042;15.498;2022-10-18T10:13:13;98161.81;;;15.55;82.28
57442;BME280;43284;47.042;15.498;2022-10-18T10:15:59;98156.34;;;15.76;81.22
57442;BME280;43284;47.042;15.498;2022-10-18T10:18:36;98148.44;;;15.76;79.69
57442;BME280;43284;47.042;15.498;2022-10-18T10:21:24;98148.97;;;15.82;80.59
57442;BME280;43284;47.042;15.498;2022-10-18T10:23:57;98147.63;;;15.91;79.39
57442;BME280;43284;47.042;15.498;2022-10-18T10:26:30;98134.03;;;15.99;80.57
57442;BME280;43284;47.042;15.498;2022-10-18T10:28:59;98138.09;;;16.04;78.94
57442;BME280;43284;47.042;15.498;2022-10-18T10:31:33;98140.84;;;16.19;79.47
57442;BME280;43284;47.042;15.498;2022-10-18T10:34:03;98131.63;;;16.26;78.54
57442;BME280;43284;47.042;15.498;2022-10-18T10:36:32;98135.47;;;16.36;78.88
57442;BME280;43284;47.042;15.498;2022-10-18T10:39:13;98129.63;;;16.61;78.43
57442;BME280;43284;47.042;15.498;2022-10-18T10:41:58;98121.22;;;16.55;76.56
57442;BME280;43284;47.042;15.498;2022-10-18T10:44:29;98123.44;;;16.62;76.42
57442;BME280;43284;47.042;15.498;2022-10-18T10:46:58;98123.56;;;16.75;77.79
57442;BME280;43284;47.042;15.498;2022-10-18T10:49:42;98112.91;;;16.77;76.10
57442;BME280;43284;47.042;15.498;2022-10-18T10:52:20;98110.19;;;16.78;76.13
57442;BME280;43284;47.042;15.498;2022-10-18T10:54:51;98104.50;;;16.86;75.18
57442;BME280;43284;47.042;15.498;2022-10-18T10:57:25;98102.72;;;17.01;76.64
57442;BME280;43284;47.042;15.498;2022-10-18T10:59:56;98093.31;;;17.11;75.75
57442;BME280;43284;47.042;15.498;2022-10-18T11:02:33;98088.88;;;17.12;74.67
57442;BME280;43284;47.042;15.498;2022-10-18T11:05:27;98090.31;;;17.17;75.85
57442;BME280;43284;47.042;15.498;2022-10-18T11:07:58;98092.47;;;17.25;74.30
57442;BME280;43284;47.042;15.498;2022-10-18T11:10:33;98094.09;;;17.56;74.41
57442;BME280;43284;47.042;15.498;2022-10-18T11:13:27;98083.22;;;17.46;73.50
57442;BME280;43284;47.042;15.498;2022-10-18T11:16:03;98065.94;;;17.55;75.15
57442;BME280;43284;47.042;15.498;2022-10-18T11:18:34;98057.16;;;17.69;74.98
57442;BME280;43284;47.042;15.498;2022-10-18T11:21:04;98052.03;;;17.80;72.76
57442;BME280;43284;47.042;15.498;2022-10-18T11:23:35;98051.47;;;17.89;73.79
57442;BME280;43284;47.042;15.498;2022-10-18T11:32:12;98044.69;;;18.12;70.05
57442;BME280;43284;47.042;15.498;2022-10-18T11:38:24;98034.88;;;18.27;70.71
57442;BME280;43284;47.042;15.498;2022-10-18T11:41:03;98029.28;;;18.32;69.73
57442;BME280;43284;47.042;15.498;2022-10-18T11:43:49;98027.59;;;18.31;70.36
57442;BME280;43284;47.042;15.498;2022-10-18T11:46:44;98033.28;;;18.52;70.72
57442;BME280;43284;47.042;15.498;2022-10-18T11:52:18;98035.56;;;18.84;69.92
57442;BME280;43284;47.042;15.498;2022-10-18T11:55:11;98027.63;;;18.84;69.13
57442;BME280;43284;47.042;15.498;2022-10-18T12:01:02;98023.41;;;18.94;68.85
57442;BME280;43284;47.042;15.498;2022-10-18T12:03:53;98016.41;;;18.93;67.59
57442;BME280;43284;47.042;15.498;2022-10-18T12:06:36;98022.97;;;18.87;67.61
57442;BME280;43284;47.042;15.498;2022-10-18T12:09:33;98017.78;;;18.99;68.95
57442;BME280;43284;47.042;15.498;2022-10-18T12:14:50;98012.25;;;19.27;69.82
57442;BME280;43284;47.042;15.498;2022-10-18T12:17:57;98000.69;;;19.28;69.96
57442;BME280;43284;47.042;15.498;2022-10-18T12:20:40;97992.22;;;19.23;68.30
57442;BME280;43284;47.042;15.498;2022-10-18T12:23:37;97982.84;;;19.43;67.55
57442;BME280;43284;47.042;15.498;2022-10-18T12:26:07;97982.63;;;19.46;66.68
57442;BME280;43284;47.042;15.498;2022-10-18T12:31:31;97969.94;;;19.63;66.91
57442;BME280;43284;47.042;15.498;2022-10-18T12:37:11;97969.09;;;19.75;65.76
57442;BME280;43284;47.042;15.498;2022-10-18T12:39:48;97957.47;;;19.89;64.05
57442;BME280;43284;47.042;15.498;2022-10-18T12:42:20;97949.28;;;19.92;65.37
57442;BME280;43284;47.042;15.498;2022-10-18T12:44:49;97962.66;;;20.14;65.97
57442;BME280;43284;47.042;15.498;2022-10-18T12:47:28;97953.81;;;20.38;64.26
57442;BME280;43284;47.042;15.498;2022-10-18T12:50:00;97949.94;;;20.42;64.88
57442;BME280;43284;47.042;15.498;2022-10-18T12:52:30;97954.91;;;20.47;63.12
57442;BME280;43284;47.042;15.498;2022-10-18T12:55:05;97949.25;;;20.51;64.81
57442;BME280;43284;47.042;15.498;2022-10-18T13:08:34;97941.59;;;20.93;62.97
57442;BME280;43284;47.042;15.498;2022-10-18T13:14:08;97941.00;;;21.01;61.62
57442;BME280;43284;47.042;15.498;2022-10-18T13:19:45;97940.28;;;20.99;61.92
57442;BME280;43284;47.042;15.498;2022-10-18T13:22:25;97944.16;;;21.06;60.87
57442;BME280;43284;47.042;15.498;2022-10-18T13:27:57;97936.53;;;21.13;62.21
57442;BME280;43284;47.042;15.498;2022-10-18T13:30:52;97934.72;;;21.13;62.18
57442;BME280;43284;47.042;15.498;2022-10-18T13:33:41;97937.13;;;21.16;62.19
57442;BME280;43284;47.042;15.498;2022-10-18T13:36:32;97928.31;;;21.16;61.46
57442;BME280;43284;47.042;15.498;2022-10-18T13:39:03;97932.16;;;21.12;61.46
57442;BME280;43284;47.042;15.498;2022-10-18T13:44:35;97930.00;;;21.17;61.19
57442;BME280;43284;47.042;15.498;2022-10-18T13:58:33;97927.00;;;20.99;61.78
57442;BME280;43284;47.042;15.498;2022-10-18T14:01:22;97919.97;;;20.98;62.43
57442;BME280;43284;47.042;15.498;2022-10-18T14:06:46;97929.03;;;20.95;62.05
57442;BME280;43284;47.042;15.498;2022-10-18T14:09:24;97923.25;;;20.90;62.09
57442;BME280;43284;47.042;15.498;2022-10-18T14:14:55;97929.25;;;20.81;62.04
57442;BME280;43284;47.042;15.498;2022-10-18T14:17:34;97921.75;;;20.75;62.51
57442;BME280;43284;47.042;15.498;2022-10-18T14:23:23;97928.41;;;20.58;62.46
57442;BME280;43284;47.042;15.498;2022-10-18T14:26:14;97928.06;;;20.63;62.02
57442;BME280;43284;47.042;15.498;2022-10-18T14:28:42;97914.28;;;20.57;62.88
57442;BME280;43284;47.042;15.498;2022-10-18T14:31:15;97913.25;;;20.47;63.24
57442;BME280;43284;47.042;15.498;2022-10-18T14:33:51;97918.66;;;20.34;63.24
57442;BME280;43284;47.042;15.498;2022-10-18T14:38:57;97920.28;;;20.13;63.69
57442;BME280;43284;47.042;15.498;2022-10-18T14:41:33;97921.63;;;20.07;64.02
57442;BME280;43284;47.042;15.498;2022-10-18T14:44:19;97926.63;;;19.99;63.96
57442;BME280;43284;47.042;15.498;2022-10-18T14:46:58;97925.41;;;19.92;64.84
57442;BME280;43284;47.042;15.498;2022-10-18T14:49:26;97926.69;;;19.86;65.76
57442;BME280;43284;47.042;15.498;2022-10-18T14:51:55;97922.81;;;19.79;66.24
57442;BME280;43284;47.042;15.498;2022-10-18T14:54:32;97924.22;;;19.72;65.80
57442;BME280;43284;47.042;15.498;2022-10-18T14:57:04;97922.94;;;19.65;66.60
57442;BME280;43284;47.042;15.498;2022-10-18T14:59:46;97920.88;;;19.57;67.81
57442;BME280;43284;47.042;15.498;2022-10-18T15:02:31;97920.34;;;19.52;66.57
57442;BME280;43284;47.042;15.498;2022-10-18T15:05:16;97926.06;;;19.46;67.54
57442;BME280;43284;47.042;15.498;2022-10-18T15:07:46;97915.72;;;19.43;66.62